createdAt,value
2022-09-17T00:01:31.998Z,20.81
2022-09-17T00:04:04.268Z,20.63
2022-09-17T00:06:35.226Z,20.70
2022-09-17T00:09:04.868Z,20.72
2022-09-17T00:11:36.459Z,20.83
2022-09-17T00:14:05.352Z,20.81
2022-09-17T00:16:38.293Z,20.80
2022-09-17T00:19:08.563Z,20.80
2022-09-17T00:21:36.579Z,20.82
2022-09-17T00:24:06.295Z,20.82
2022-09-17T00:26:35.347Z,20.81
2022-09-17T00:29:03.053Z,20.72
2022-09-17T00:31:32.221Z,20.81
2022-09-17T00:34:01.121Z,20.67
2022-09-17T00:36:29.498Z,20.88
2022-09-17T00:38:59.718Z,20.64
2022-09-17T00:41:31.171Z,20.79
2022-09-17T00:44:00.941Z,20.64
2022-09-17T00:46:44.134Z,20.50
2022-09-17T00:49:24.911Z,20.43
2022-09-17T00:52:15.954Z,20.56
2022-09-17T00:54:47.899Z,20.73
2022-09-17T00:57:17.350Z,20.57
2022-09-17T00:59:44.704Z,20.61
2022-09-17T01:02:13.310Z,20.39
2022-09-17T01:04:42.290Z,20.32
2022-09-17T01:07:31.715Z,20.46
2022-09-17T01:10:44.354Z,20.45
2022-09-17T01:13:24.062Z,20.41
2022-09-17T01:16:10.159Z,19.90
2022-09-17T01:18:40.763Z,20.26
2022-09-17T01:21:33.851Z,20.33
2022-09-17T01:24:05.520Z,20.25
2022-09-17T01:26:45.051Z,20.21
2022-09-17T01:29:31.656Z,20.20
2022-09-17T01:32:15.619Z,19.94
2022-09-17T01:35:10.181Z,20.14
2022-09-17T01:38:10.919Z,20.15
2022-09-17T01:40:49.013Z,19.91
2022-09-17T01:43:37.804Z,19.94
2022-09-17T01:46:19.929Z,19.87
2022-09-17T01:48:52.066Z,20.14
2022-09-17T01:51:24.551Z,20.18
2022-09-17T01:54:28.621Z,20.14
2022-09-17T01:57:12.169Z,20.13
2022-09-17T01:59:57.678Z,20.02
2022-09-17T02:02:34.526Z,20.12
2022-09-17T02:05:09.324Z,20.16
2022-09-17T02:07:41.164Z,20.13
2022-09-17T02:10:21.154Z,20.12
2022-09-17T02:13:01.592Z,20.08
2022-09-17T02:15:34.072Z,20.16
2022-09-17T02:18:19.752Z,20.07
2022-09-17T02:20:53.197Z,20.12
2022-09-17T02:23:28.430Z,19.94
2022-09-17T02:26:04.885Z,20.04
2022-09-17T02:28:43.461Z,20.00
2022-09-17T02:31:11.879Z,20.00
2022-09-17T02:33:41.774Z,19.86
2022-09-17T02:36:09.439Z,20.07
2022-09-17T02:38:38.737Z,20.05
2022-09-17T02:41:23.828Z,19.81
2022-09-17T02:43:57.135Z,20.02
2022-09-17T02:46:57.039Z,20.02
2022-09-17T02:49:34.314Z,19.88
2022-09-17T02:52:35.565Z,20.05
2022-09-17T02:55:26.735Z,20.00
2022-09-17T02:58:23.995Z,19.98
2022-09-17T03:00:52.876Z,19.90
2022-09-17T03:03:26.918Z,19.90
2022-09-17T03:05:56.375Z,19.73
2022-09-17T03:08:39.236Z,19.86
2022-09-17T03:11:09.219Z,19.79
2022-09-17T03:13:37.038Z,19.63
2022-09-17T03:16:05.793Z,19.82
2022-09-17T03:18:33.249Z,19.65
2022-09-17T03:21:00.829Z,19.46
2022-09-17T03:23:28.214Z,19.45
2022-09-17T03:25:56.089Z,19.55
2022-09-17T03:28:23.365Z,19.34
2022-09-17T03:30:51.219Z,19.42
2022-09-17T03:33:18.855Z,19.33
2022-09-17T03:35:47.120Z,19.37
2022-09-17T03:38:15.031Z,19.12
2022-09-17T03:40:43.212Z,19.21
2022-09-17T03:43:10.119Z,19.38
2022-09-17T03:45:37.379Z,19.21
2022-09-17T03:48:04.943Z,19.34
2022-09-17T03:50:33.050Z,19.04
2022-09-17T03:53:01.139Z,19.25
2022-09-17T03:55:29.166Z,19.32
2022-09-17T03:57:57.167Z,19.36
2022-09-17T04:00:25.627Z,19.25
2022-09-17T04:02:54.127Z,19.36
2022-09-17T04:05:22.630Z,19.34
2022-09-17T04:07:50.973Z,19.08
2022-09-17T04:10:19.868Z,19.20
2022-09-17T04:12:48.306Z,19.40
2022-09-17T04:15:15.664Z,19.37
2022-09-17T04:17:42.510Z,19.38
2022-09-17T04:20:10.081Z,19.40
2022-09-17T04:22:37.552Z,19.41
2022-09-17T04:25:05.568Z,19.22
2022-09-17T04:27:35.433Z,19.42
2022-09-17T04:30:04.377Z,19.37
2022-09-17T04:32:32.547Z,19.17
2022-09-17T04:34:59.710Z,19.35
2022-09-17T04:37:27.520Z,19.19
2022-09-17T04:39:55.211Z,19.46
2022-09-17T04:42:23.013Z,19.13
2022-09-17T04:44:50.313Z,19.12
2022-09-17T04:47:17.479Z,19.16
2022-09-17T04:49:44.789Z,19.35
2022-09-17T04:52:12.056Z,19.36
2022-09-17T04:54:39.710Z,19.54
2022-09-17T04:57:06.976Z,19.51
2022-09-17T04:59:35.107Z,19.69
2022-09-17T05:02:02.475Z,19.76
2022-09-17T05:04:30.688Z,19.66
2022-09-17T05:06:58.000Z,19.92
2022-09-17T05:09:25.725Z,19.94
2022-09-17T05:11:52.949Z,20.02
2022-09-17T05:14:20.883Z,19.76
2022-09-17T05:16:47.746Z,20.12
2022-09-17T05:19:14.717Z,19.94
2022-09-17T05:21:41.724Z,20.20
2022-09-17T05:24:10.006Z,20.30
2022-09-17T05:26:38.447Z,20.01
2022-09-17T05:29:06.870Z,20.30
2022-09-17T05:31:35.302Z,20.19
2022-09-17T05:34:02.407Z,20.59
2022-09-17T05:36:29.912Z,20.67
2022-09-17T05:38:57.525Z,20.68
2022-09-17T05:41:24.887Z,20.72
2022-09-17T05:43:52.506Z,20.66
2022-09-17T05:46:19.861Z,20.85
2022-09-17T05:48:47.268Z,20.27
2022-09-17T05:51:14.682Z,20.87
2022-09-17T05:53:42.908Z,20.98
2022-09-17T05:56:10.321Z,20.95
2022-09-17T05:58:38.501Z,21.05
2022-09-17T06:01:05.966Z,20.93
2022-09-17T06:03:34.594Z,20.75
2022-09-17T06:06:02.276Z,21.15
2022-09-17T06:08:30.334Z,21.23
2022-09-17T06:11:02.322Z,21.24
2022-09-17T06:13:31.465Z,21.22
2022-09-17T06:15:58.958Z,21.40
2022-09-17T06:18:28.291Z,21.32
2022-09-17T06:21:03.487Z,21.43
2022-09-17T06:23:38.053Z,21.51
2022-09-17T06:26:06.898Z,21.53
2022-09-17T06:28:37.853Z,21.34
2022-09-17T06:31:10.500Z,21.62
2022-09-17T06:33:38.296Z,21.50
2022-09-17T06:36:13.098Z,21.74
2022-09-17T06:38:41.350Z,21.78
2022-09-17T06:41:08.759Z,21.81
2022-09-17T06:43:36.631Z,21.68
2022-09-17T06:46:06.687Z,21.91
2022-09-17T06:48:35.648Z,21.86
2022-09-17T06:51:08.668Z,21.94
2022-09-17T06:53:38.601Z,21.92
2022-09-17T06:56:09.131Z,21.85
2022-09-17T06:58:38.266Z,21.86
2022-09-17T07:01:07.123Z,21.97
2022-09-17T07:03:35.712Z,21.83
2022-09-17T07:06:04.509Z,21.94
2022-09-17T07:08:34.745Z,21.88
2022-09-17T07:11:02.965Z,21.93
2022-09-17T07:13:30.988Z,21.99
2022-09-17T07:16:00.506Z,22.28
2022-09-17T07:18:28.680Z,22.09
2022-09-17T07:21:00.944Z,22.22
2022-09-17T07:23:31.910Z,22.42
2022-09-17T07:26:02.010Z,22.41
2022-09-17T07:28:29.892Z,22.53
2022-09-17T07:30:57.663Z,22.70
2022-09-17T07:33:27.194Z,22.70
2022-09-17T07:35:55.088Z,22.77
2022-09-17T07:38:24.150Z,22.80
2022-09-17T07:41:02.595Z,22.95
2022-09-17T07:43:33.039Z,22.87
2022-09-17T07:46:02.473Z,23.05
2022-09-17T07:48:31.035Z,23.16
2022-09-17T07:50:58.853Z,23.35
2022-09-17T07:53:27.341Z,23.38
2022-09-17T07:55:55.480Z,23.49
2022-09-17T07:58:24.937Z,23.52
2022-09-17T08:00:52.198Z,23.63
2022-09-17T08:03:20.731Z,23.64
2022-09-17T08:05:48.231Z,23.74
2022-09-17T08:08:20.954Z,23.79
2022-09-17T08:10:48.781Z,23.80
2022-09-17T08:13:16.735Z,23.87
2022-09-17T08:15:44.519Z,23.96
2022-09-17T08:18:12.040Z,23.58
2022-09-17T08:20:39.656Z,23.91
2022-09-17T08:23:06.896Z,24.17
2022-09-17T08:25:35.170Z,24.05
2022-09-17T08:28:02.403Z,24.00
2022-09-17T08:30:31.648Z,24.08
2022-09-17T08:32:58.884Z,24.45
2022-09-17T08:35:28.525Z,24.40
2022-09-17T08:37:56.247Z,24.48
2022-09-17T08:40:23.719Z,24.63
2022-09-17T08:43:02.685Z,24.56
2022-09-17T08:45:30.241Z,24.66
2022-09-17T08:48:05.243Z,24.55
2022-09-17T08:50:34.787Z,24.48
2022-09-17T08:53:09.159Z,24.54
2022-09-17T08:55:59.957Z,24.64
2022-09-17T08:58:53.845Z,24.52
2022-09-17T09:01:35.325Z,24.58
2022-09-17T09:05:02.873Z,24.59
2022-09-17T09:07:39.182Z,24.70
2022-09-17T09:10:15.396Z,24.63
2022-09-17T09:12:44.846Z,24.52
2022-09-17T09:15:22.023Z,24.55
2022-09-17T09:17:51.417Z,24.65
2022-09-17T09:20:49.026Z,24.57
2022-09-17T09:23:41.254Z,24.49
2022-09-17T09:26:17.892Z,24.77
2022-09-17T09:28:50.920Z,24.66
2022-09-17T09:31:37.383Z,24.57
2022-09-17T09:34:08.164Z,24.55
2022-09-17T09:36:39.516Z,24.66
2022-09-17T09:39:35.075Z,24.66
2022-09-17T09:42:29.128Z,24.60
2022-09-17T09:45:18.499Z,24.70
2022-09-17T09:48:07.795Z,24.88
2022-09-17T09:51:05.651Z,25.07
2022-09-17T09:54:08.720Z,25.16
2022-09-17T09:56:48.263Z,24.95
2022-09-17T09:59:16.537Z,24.86
2022-09-17T10:01:45.550Z,25.00
2022-09-17T10:04:23.174Z,25.00
2022-09-17T10:06:54.279Z,25.00
2022-09-17T10:09:23.331Z,24.95
2022-09-17T10:12:16.633Z,24.97
2022-09-17T10:14:47.315Z,24.65
2022-09-17T10:17:20.790Z,25.01
2022-09-17T10:20:09.065Z,24.99
2022-09-17T10:22:39.634Z,24.53
2022-09-17T10:25:23.625Z,23.92
2022-09-17T10:27:51.793Z,23.99
2022-09-17T10:30:19.936Z,24.27
2022-09-17T10:33:21.741Z,24.10
2022-09-17T10:35:57.368Z,24.07
2022-09-17T10:38:49.937Z,24.26
2022-09-17T10:41:21.998Z,24.41
2022-09-17T10:43:50.105Z,24.53
2022-09-17T10:46:34.007Z,24.54
2022-09-17T10:49:21.566Z,24.53
2022-09-17T10:51:49.546Z,24.69
2022-09-17T10:54:40.724Z,24.67
2022-09-17T10:57:12.239Z,24.09
2022-09-17T11:00:09.548Z,24.31
2022-09-17T11:02:55.847Z,24.18
2022-09-17T11:05:53.940Z,24.04
2022-09-17T11:08:51.704Z,24.05
2022-09-17T11:11:33.024Z,24.03
2022-09-17T11:14:16.409Z,24.02
2022-09-17T11:16:56.095Z,23.91
2022-09-17T11:19:41.264Z,23.97
2022-09-17T11:22:10.876Z,23.97
2022-09-17T11:24:54.876Z,23.88
2022-09-17T11:27:52.521Z,23.77
2022-09-17T11:30:23.966Z,23.68
2022-09-17T11:33:04.481Z,23.89
2022-09-17T11:36:08.370Z,23.99
2022-09-17T11:38:54.218Z,23.95
2022-09-17T11:41:33.859Z,23.83
2022-09-17T11:44:31.705Z,23.75
2022-09-17T11:47:22.179Z,23.72
2022-09-17T11:49:59.055Z,23.85
2022-09-17T11:52:39.633Z,23.84
2022-09-17T11:55:39.185Z,23.73
2022-09-17T11:58:15.954Z,23.94
2022-09-17T12:01:02.465Z,23.99
2022-09-17T12:03:52.680Z,24.15
2022-09-17T12:06:29.401Z,24.07
2022-09-17T12:09:05.687Z,23.92
2022-09-17T12:11:43.004Z,24.16
2022-09-17T12:14:50.058Z,24.09
2022-09-17T12:17:43.024Z,23.88
2022-09-17T12:20:39.687Z,23.82
2022-09-17T12:23:14.259Z,23.90
2022-09-17T12:26:04.599Z,23.58
2022-09-17T12:29:11.914Z,23.46
2022-09-17T12:31:51.706Z,23.81
2022-09-17T12:35:03.506Z,23.84
2022-09-17T12:38:03.339Z,24.12
2022-09-17T12:40:58.679Z,24.17
2022-09-17T12:43:57.000Z,24.32
2022-09-17T12:46:45.898Z,24.49
2022-09-17T12:49:13.680Z,24.53
2022-09-17T12:52:02.700Z,24.64
2022-09-17T12:54:33.171Z,24.54
2022-09-17T12:57:19.615Z,24.64
2022-09-17T12:59:58.952Z,24.75
2022-09-17T13:02:55.675Z,24.78
2022-09-17T13:05:45.493Z,24.80
2022-09-17T13:08:19.142Z,24.70
2022-09-17T13:11:14.340Z,24.82
2022-09-17T13:13:49.707Z,24.87
2022-09-17T13:16:45.768Z,24.95
2022-09-17T13:19:31.419Z,25.03
2022-09-17T13:22:07.375Z,25.01
2022-09-17T13:24:35.559Z,24.98
2022-09-17T13:27:05.122Z,25.33
2022-09-17T13:29:55.801Z,25.39
2022-09-17T13:32:35.767Z,25.38
2022-09-17T13:35:10.030Z,25.28
2022-09-17T13:37:55.479Z,25.06
2022-09-17T13:40:37.726Z,25.15
2022-09-17T13:43:06.366Z,25.21
2022-09-17T13:45:54.867Z,25.39
2022-09-17T13:48:26.876Z,25.21
2022-09-17T13:50:54.446Z,25.42
2022-09-17T13:53:27.039Z,25.53
2022-09-17T13:55:58.983Z,25.62
2022-09-17T13:58:32.677Z,25.60
2022-09-17T14:01:04.781Z,25.58
2022-09-17T14:03:37.132Z,25.64
2022-09-17T14:06:05.583Z,25.72
2022-09-17T14:08:45.379Z,25.77
2022-09-17T14:11:32.810Z,25.74
2022-09-17T14:14:07.954Z,25.70
2022-09-17T14:16:46.305Z,25.49
2022-09-17T14:19:17.205Z,25.46
2022-09-17T14:22:08.327Z,25.47
2022-09-17T14:24:46.787Z,25.47
2022-09-17T14:27:36.568Z,25.56
2022-09-17T14:30:21.239Z,25.52
2022-09-17T14:33:22.606Z,25.60
2022-09-17T14:35:52.699Z,25.62
2022-09-17T14:38:35.106Z,25.77
2022-09-17T14:41:07.441Z,25.85
2022-09-17T14:44:04.139Z,25.62
2022-09-17T14:46:39.703Z,25.25
2022-09-17T14:49:36.114Z,25.57
2022-09-17T14:52:24.515Z,25.26
2022-09-17T14:55:25.346Z,25.23
2022-09-17T14:58:04.973Z,25.00
2022-09-17T15:00:40.859Z,24.75
2022-09-17T15:03:22.007Z,24.71
2022-09-17T15:05:53.785Z,24.73
2022-09-17T15:08:30.916Z,24.43
2022-09-17T15:11:07.115Z,24.64
2022-09-17T15:13:44.421Z,24.16
2022-09-17T15:16:25.988Z,24.48
2022-09-17T15:19:00.545Z,24.17
2022-09-17T15:21:43.759Z,24.13
2022-09-17T15:24:37.165Z,23.86
2022-09-17T15:27:22.863Z,23.86
2022-09-17T15:29:55.518Z,23.73
2022-09-17T15:32:23.890Z,23.70
2022-09-17T15:35:23.135Z,23.59
2022-09-17T15:40:45.207Z,23.27
2022-09-17T15:48:55.662Z,20.03
2022-09-17T15:51:27.349Z,21.35
2022-09-17T15:54:11.086Z,21.75
2022-09-17T15:56:42.761Z,20.17
2022-09-17T15:59:23.346Z,21.58
2022-09-17T16:01:53.911Z,19.87
2022-09-17T16:04:25.853Z,21.19
2022-09-17T16:06:59.373Z,19.76
2022-09-17T16:09:41.824Z,21.06
2022-09-17T16:12:14.238Z,19.20
2022-09-17T16:14:54.494Z,20.12
2022-09-17T16:17:29.242Z,19.47
2022-09-17T16:19:57.219Z,19.08
2022-09-17T16:22:24.707Z,18.39
2022-09-17T16:24:53.015Z,20.11
2022-09-17T16:27:25.211Z,19.48
2022-09-17T16:30:01.964Z,19.04
2022-09-17T16:32:30.080Z,19.98
2022-09-17T16:35:01.837Z,19.69
2022-09-17T16:37:31.123Z,18.65
2022-09-17T16:40:01.426Z,20.46
2022-09-17T16:42:32.925Z,19.42
2022-09-17T16:45:03.876Z,20.70
2022-09-17T16:47:39.467Z,20.74
2022-09-17T16:50:10.318Z,19.82
2022-09-17T16:52:38.432Z,19.04
2022-09-17T16:55:07.740Z,20.30
2022-09-17T16:57:36.038Z,19.08
2022-09-17T17:00:06.134Z,17.96
2022-09-17T17:02:33.965Z,20.49
2022-09-17T17:05:01.782Z,19.62
2022-09-17T17:07:29.494Z,19.59
2022-09-17T17:09:57.579Z,18.91
2022-09-17T17:12:25.612Z,19.24
2022-09-17T17:14:54.080Z,18.10
2022-09-17T17:17:22.065Z,19.38
2022-09-17T17:19:50.088Z,19.83
2022-09-17T17:22:17.546Z,18.35
2022-09-17T17:24:45.626Z,17.49
2022-09-17T17:27:14.378Z,17.57
2022-09-17T17:29:42.486Z,18.76
2022-09-17T17:32:10.162Z,18.12
2022-09-17T17:34:37.793Z,18.38
2022-09-17T17:37:05.481Z,17.76
2022-09-17T17:39:33.413Z,18.00
2022-09-17T17:42:01.147Z,17.70
2022-09-17T17:44:39.072Z,16.61
2022-09-17T17:47:07.009Z,16.43
2022-09-17T17:49:34.516Z,16.76
2022-09-17T17:52:02.436Z,16.93
2022-09-17T17:54:30.297Z,16.96
2022-09-17T17:56:58.338Z,17.04
2022-09-17T17:59:26.119Z,16.94
2022-09-17T18:01:54.333Z,16.42
2022-09-17T18:04:22.213Z,16.44
2022-09-17T18:06:50.238Z,16.75
2022-09-17T18:09:18.202Z,16.70
2022-09-17T18:11:46.235Z,16.76
2022-09-17T18:14:14.191Z,16.46
2022-09-17T18:16:41.347Z,16.69
2022-09-17T18:19:12.245Z,16.67
2022-09-17T18:21:39.820Z,16.86
2022-09-17T18:24:07.225Z,16.95
2022-09-17T18:26:36.105Z,16.77
2022-09-17T18:29:07.800Z,16.82
2022-09-17T18:31:38.117Z,17.04
2022-09-17T18:34:09.912Z,16.85
2022-09-17T18:36:39.129Z,17.03
2022-09-17T18:41:56.998Z,17.18
2022-09-17T18:44:25.254Z,16.84
2022-09-17T18:46:53.086Z,17.18
2022-09-17T18:49:20.386Z,16.90
2022-09-17T18:51:48.199Z,17.18
2022-09-17T18:54:15.456Z,17.06
2022-09-17T18:56:43.328Z,17.21
2022-09-17T18:59:11.255Z,17.13
2022-09-17T19:01:39.230Z,17.07
2022-09-17T19:04:10.163Z,17.05
2022-09-17T19:06:37.998Z,16.93
2022-09-17T19:09:06.430Z,17.04
2022-09-17T19:11:37.593Z,16.82
2022-09-17T19:14:05.023Z,16.80
2022-09-17T19:16:32.417Z,16.86
2022-09-17T19:19:00.125Z,16.81
2022-09-17T19:21:27.604Z,16.77
2022-09-17T19:23:55.839Z,16.39
2022-09-17T19:26:27.835Z,16.48
2022-09-17T19:28:58.270Z,16.66
2022-09-17T19:31:27.283Z,16.60
2022-09-17T19:33:55.495Z,16.79
2022-09-17T19:36:23.210Z,16.77
2022-09-17T19:38:50.525Z,16.85
2022-09-17T19:41:26.089Z,16.76
2022-09-17T19:43:55.098Z,16.74
2022-09-17T19:46:25.913Z,16.58
2022-09-17T19:48:56.238Z,16.74
2022-09-17T19:51:26.099Z,16.58
2022-09-17T19:53:53.916Z,16.44
2022-09-17T19:56:25.428Z,16.41
2022-09-17T19:58:53.504Z,16.33
2022-09-17T20:01:21.193Z,16.38
2022-09-17T20:03:49.222Z,16.51
2022-09-17T20:06:20.848Z,16.63
2022-09-17T20:08:51.667Z,16.37
2022-09-17T20:11:20.896Z,16.79
2022-09-17T20:13:51.215Z,16.56
2022-09-17T20:16:21.336Z,16.43
2022-09-17T20:18:49.876Z,16.64
2022-09-17T20:21:23.541Z,16.69
2022-09-17T20:23:51.248Z,16.53
2022-09-17T20:26:19.228Z,16.76
2022-09-17T20:28:46.955Z,16.59
2022-09-17T20:31:18.750Z,16.60
2022-09-17T20:33:47.280Z,16.65
2022-09-17T20:36:20.012Z,16.74
2022-09-17T20:41:40.011Z,16.77
2022-09-17T20:44:08.866Z,16.46
2022-09-17T20:46:36.317Z,16.71
2022-09-17T20:49:04.547Z,16.57
2022-09-17T20:51:33.268Z,16.55
2022-09-17T20:54:02.370Z,16.53
2022-09-17T20:56:33.342Z,16.59
2022-09-17T20:59:29.802Z,16.70
2022-09-17T21:01:57.560Z,16.69
2022-09-17T21:04:27.297Z,16.66
2022-09-17T21:06:54.922Z,16.82
2022-09-17T21:09:22.282Z,16.46
2022-09-17T21:11:50.234Z,16.62
2022-09-17T21:14:18.277Z,16.73
2022-09-17T21:16:47.126Z,16.83
2022-09-17T21:19:16.798Z,16.79
2022-09-17T21:21:45.011Z,16.77
2022-09-17T21:24:12.666Z,16.87
2022-09-17T21:26:40.757Z,16.61
2022-09-17T21:29:08.104Z,16.95
2022-09-17T21:31:38.623Z,16.75
2022-09-17T21:34:09.786Z,16.96
2022-09-17T21:36:40.712Z,16.56
2022-09-17T21:39:16.476Z,16.61
2022-09-17T21:41:46.275Z,16.70
2022-09-17T21:44:14.367Z,17.00
2022-09-17T21:46:43.233Z,16.87
2022-09-17T21:49:11.848Z,16.92
2022-09-17T21:51:41.820Z,16.74
2022-09-17T21:54:13.068Z,16.68
2022-09-17T21:56:40.904Z,16.64
2022-09-17T21:59:11.722Z,16.65
2022-09-17T22:01:44.724Z,16.73
2022-09-17T22:04:16.846Z,16.47
2022-09-17T22:06:47.147Z,16.65
2022-09-17T22:09:19.775Z,16.60
2022-09-17T22:11:48.293Z,16.77
2022-09-17T22:14:19.592Z,16.56
2022-09-17T22:16:49.388Z,16.80
2022-09-17T22:19:18.562Z,16.48
2022-09-17T22:21:48.903Z,16.50
2022-09-17T22:24:16.954Z,16.61
2022-09-17T22:26:54.144Z,16.62
2022-09-17T22:29:25.210Z,16.53
2022-09-17T22:31:54.724Z,16.34
2022-09-17T22:34:23.179Z,16.17
2022-09-17T22:36:51.058Z,16.45
2022-09-17T22:39:22.533Z,16.39
2022-09-17T22:41:50.281Z,16.48
2022-09-17T22:44:19.917Z,16.45
2022-09-17T22:46:50.069Z,16.26
2022-09-17T22:49:18.701Z,16.37
2022-09-17T22:51:47.308Z,16.65
2022-09-17T22:54:17.163Z,16.59
2022-09-17T22:56:45.113Z,16.51
2022-09-17T22:59:13.906Z,16.54
2022-09-17T23:01:41.869Z,16.48
2022-09-17T23:04:10.720Z,16.50
2022-09-17T23:06:39.868Z,16.64
2022-09-17T23:09:08.857Z,16.64
2022-09-17T23:11:38.971Z,16.58
2022-09-17T23:14:11.366Z,16.57
2022-09-17T23:16:47.690Z,16.60
2022-09-17T23:19:18.247Z,16.44
2022-09-17T23:21:45.873Z,16.54
2022-09-17T23:24:18.971Z,16.53
2022-09-17T23:26:46.841Z,16.66
2022-09-17T23:29:15.703Z,16.45
2022-09-17T23:31:43.594Z,16.67
2022-09-17T23:34:11.269Z,16.65
2022-09-17T23:36:40.473Z,16.57
2022-09-17T23:39:09.626Z,16.54
2022-09-17T23:41:40.819Z,16.64
2022-09-17T23:44:14.855Z,16.42
2022-09-17T23:46:45.105Z,16.59
2022-09-17T23:49:13.656Z,16.53
2022-09-17T23:51:40.803Z,16.55
2022-09-17T23:54:08.367Z,16.43
2022-09-17T23:56:36.559Z,16.60
2022-09-17T23:59:05.038Z,16.67
